sensor_id;sensor_type;location;lat;lon;timestamp;pressure;altitude;pressure_sealevel;temperature;humidity
54918;BME280;40818;50.562;7.454;2022-10-16T00:01:28;97366.00;;;12.68;100.00
54918;BME280;40818;50.562;7.454;2022-10-16T00:06:35;97357.50;;;12.66;100.00
54918;BME280;40818;50.562;7.454;2022-10-16T00:11:39;97364.25;;;12.68;100.00
54918;BME280;40818;50.562;7.454;2022-10-16T00:16:43;97366.50;;;12.61;100.00
54918;BME280;40818;50.562;7.454;2022-10-16T00:21:49;97371.47;;;12.64;100.00
54918;BME280;40818;50.562;7.454;2022-10-16T00:26:52;97370.78;;;12.62;100.00
54918;BME280;40818;50.562;7.454;2022-10-16T00:31:56;97371.13;;;12.58;100.00
54918;BME280;40818;50.562;7.454;2022-10-16T00:37:02;97362.63;;;12.56;100.00
54918;BME280;40818;50.562;7.454;2022-10-16T00:42:06;97383.34;;;12.57;100.00
54918;BME280;40818;50.562;7.454;2022-10-16T00:47:11;97392.56;;;12.61;100.00
54918;BME280;40818;50.562;7.454;2022-10-16T00:52:19;97397.75;;;12.61;100.00
54918;BME280;40818;50.562;7.454;2022-10-16T00:57:22;97395.53;;;12.57;100.00
54918;BME280;40818;50.562;7.454;2022-10-16T01:02:26;97384.53;;;12.53;100.00
54918;BME280;40818;50.562;7.454;2022-10-16T01:07:40;97385.03;;;12.47;100.00
54918;BME280;40818;50.562;7.454;2022-10-16T01:12:51;97394.72;;;12.45;100.00
54918;BME280;40818;50.562;7.454;2022-10-16T01:18:00;97390.94;;;12.38;100.00
54918;BME280;40818;50.562;7.454;2022-10-16T01:23:21;97397.69;;;12.40;100.00
54918;BME280;40818;50.562;7.454;2022-10-16T01:28:35;97399.22;;;12.43;100.00
54918;BME280;40818;50.562;7.454;2022-10-16T01:33:41;97390.69;;;12.41;100.00
54918;BME280;40818;50.562;7.454;2022-10-16T01:38:48;97406.78;;;12.46;100.00
54918;BME280;40818;50.562;7.454;2022-10-16T01:43:58;97373.41;;;12.40;100.00
54918;BME280;40818;50.562;7.454;2022-10-16T01:49:06;97405.94;;;12.45;100.00
54918;BME280;40818;50.562;7.454;2022-10-16T01:54:12;97413.88;;;12.44;100.00
54918;BME280;40818;50.562;7.454;2022-10-16T01:59:21;97407.13;;;12.41;100.00
54918;BME280;40818;50.562;7.454;2022-10-16T02:04:30;97411.75;;;12.38;100.00
54918;BME280;40818;50.562;7.454;2022-10-16T02:09:35;97415.78;;;12.31;100.00
54918;BME280;40818;50.562;7.454;2022-10-16T02:14:41;97426.22;;;12.31;100.00
54918;BME280;40818;50.562;7.454;2022-10-16T02:19:46;97431.88;;;12.24;100.00
54918;BME280;40818;50.562;7.454;2022-10-16T02:24:54;97414.81;;;12.20;100.00
54918;BME280;40818;50.562;7.454;2022-10-16T02:30:06;97424.06;;;12.13;100.00
54918;BME280;40818;50.562;7.454;2022-10-16T02:35:11;97414.34;;;12.04;100.00
54918;BME280;40818;50.562;7.454;2022-10-16T02:40:15;97424.31;;;12.10;100.00
54918;BME280;40818;50.562;7.454;2022-10-16T02:45:24;97423.38;;;12.11;100.00
54918;BME280;40818;50.562;7.454;2022-10-16T02:50:28;97426.53;;;12.15;100.00
54918;BME280;40818;50.562;7.454;2022-10-16T02:55:31;97415.31;;;12.14;100.00
54918;BME280;40818;50.562;7.454;2022-10-16T03:00:37;97433.78;;;12.22;100.00
54918;BME280;40818;50.562;7.454;2022-10-16T03:05:42;97442.28;;;12.24;100.00
54918;BME280;40818;50.562;7.454;2022-10-16T03:10:46;97426.09;;;12.21;100.00
54918;BME280;40818;50.562;7.454;2022-10-16T03:15:52;97421.47;;;12.13;100.00
54918;BME280;40818;50.562;7.454;2022-10-16T03:20:56;97406.56;;;12.15;100.00
54918;BME280;40818;50.562;7.454;2022-10-16T03:25:59;97420.28;;;12.17;100.00
54918;BME280;40818;50.562;7.454;2022-10-16T03:31:05;97434.00;;;12.19;100.00
54918;BME280;40818;50.562;7.454;2022-10-16T03:36:08;97451.25;;;12.20;100.00
54918;BME280;40818;50.562;7.454;2022-10-16T03:41:12;97450.09;;;12.24;100.00
54918;BME280;40818;50.562;7.454;2022-10-16T03:46:18;97442.75;;;12.18;100.00
54918;BME280;40818;50.562;7.454;2022-10-16T03:51:22;97439.31;;;12.18;100.00
54918;BME280;40818;50.562;7.454;2022-10-16T03:56:25;97450.56;;;12.18;100.00
54918;BME280;40818;50.562;7.454;2022-10-16T04:01:31;97452.22;;;12.19;100.00
54918;BME280;40818;50.562;7.454;2022-10-16T04:06:35;97458.84;;;12.23;100.00
54918;BME280;40818;50.562;7.454;2022-10-16T04:11:38;97456.25;;;12.23;100.00
54918;BME280;40818;50.562;7.454;2022-10-16T04:16:44;97460.03;;;12.19;100.00
54918;BME280;40818;50.562;7.454;2022-10-16T04:21:48;97470.22;;;12.22;100.00
54918;BME280;40818;50.562;7.454;2022-10-16T04:26:51;97457.53;;;12.18;100.00
54918;BME280;40818;50.562;7.454;2022-10-16T04:31:57;97455.66;;;12.20;100.00
54918;BME280;40818;50.562;7.454;2022-10-16T04:37:00;97460.25;;;12.16;100.00
54918;BME280;40818;50.562;7.454;2022-10-16T04:42:04;97473.13;;;12.18;100.00
54918;BME280;40818;50.562;7.454;2022-10-16T04:47:10;97478.84;;;12.23;100.00
54918;BME280;40818;50.562;7.454;2022-10-16T04:52:13;97481.19;;;12.26;100.00
54918;BME280;40818;50.562;7.454;2022-10-16T04:57:17;97477.06;;;12.23;100.00
54918;BME280;40818;50.562;7.454;2022-10-16T05:02:23;97479.88;;;12.20;100.00
54918;BME280;40818;50.562;7.454;2022-10-16T05:07:27;97479.44;;;12.15;100.00
54918;BME280;40818;50.562;7.454;2022-10-16T05:12:31;97509.56;;;12.18;100.00
54918;BME280;40818;50.562;7.454;2022-10-16T05:17:37;97494.81;;;12.18;100.00
54918;BME280;40818;50.562;7.454;2022-10-16T05:22:41;97491.72;;;12.13;100.00
54918;BME280;40818;50.562;7.454;2022-10-16T05:27:47;97497.72;;;12.13;100.00
54918;BME280;40818;50.562;7.454;2022-10-16T05:32:53;97485.31;;;12.06;100.00
54918;BME280;40818;50.562;7.454;2022-10-16T05:37:57;97498.81;;;12.00;100.00
54918;BME280;40818;50.562;7.454;2022-10-16T05:43:00;97502.34;;;11.99;100.00
54918;BME280;40818;50.562;7.454;2022-10-16T05:48:06;97510.59;;;12.04;100.00
54918;BME280;40818;50.562;7.454;2022-10-16T05:53:10;97517.59;;;12.03;100.00
54918;BME280;40818;50.562;7.454;2022-10-16T05:58:13;97517.72;;;12.02;100.00
54918;BME280;40818;50.562;7.454;2022-10-16T06:03:19;97523.03;;;12.00;100.00
54918;BME280;40818;50.562;7.454;2022-10-16T06:08:23;97534.25;;;12.01;100.00
54918;BME280;40818;50.562;7.454;2022-10-16T06:13:26;97523.38;;;11.95;100.00
54918;BME280;40818;50.562;7.454;2022-10-16T06:18:32;97539.00;;;11.95;100.00
54918;BME280;40818;50.562;7.454;2022-10-16T06:23:36;97532.41;;;11.90;100.00
54918;BME280;40818;50.562;7.454;2022-10-16T06:28:40;97541.78;;;11.92;100.00
54918;BME280;40818;50.562;7.454;2022-10-16T06:33:50;97559.69;;;11.97;100.00
54918;BME280;40818;50.562;7.454;2022-10-16T06:38:54;97554.25;;;12.00;100.00
54918;BME280;40818;50.562;7.454;2022-10-16T06:43:57;97567.16;;;12.02;100.00
54918;BME280;40818;50.562;7.454;2022-10-16T06:49:03;97552.47;;;12.01;100.00
54918;BME280;40818;50.562;7.454;2022-10-16T06:54:07;97575.66;;;12.04;100.00
54918;BME280;40818;50.562;7.454;2022-10-16T06:59:10;97587.03;;;12.03;100.00
54918;BME280;40818;50.562;7.454;2022-10-16T07:04:17;97607.38;;;12.09;100.00
54918;BME280;40818;50.562;7.454;2022-10-16T07:09:20;97604.66;;;12.10;100.00
54918;BME280;40818;50.562;7.454;2022-10-16T07:14:24;97615.09;;;12.22;100.00
54918;BME280;40818;50.562;7.454;2022-10-16T07:19:30;97617.13;;;12.18;100.00
54918;BME280;40818;50.562;7.454;2022-10-16T07:24:34;97649.19;;;12.30;100.00
54918;BME280;40818;50.562;7.454;2022-10-16T07:29:37;97668.72;;;12.36;100.00
54918;BME280;40818;50.562;7.454;2022-10-16T07:34:46;97665.19;;;12.37;100.00
54918;BME280;40818;50.562;7.454;2022-10-16T07:39:49;97673.50;;;12.42;100.00
54918;BME280;40818;50.562;7.454;2022-10-16T07:44:53;97679.69;;;12.52;100.00
54918;BME280;40818;50.562;7.454;2022-10-16T07:49:59;97689.31;;;12.63;100.00
54918;BME280;40818;50.562;7.454;2022-10-16T07:55:03;97702.47;;;12.73;100.00
54918;BME280;40818;50.562;7.454;2022-10-16T08:00:08;97705.56;;;12.78;100.00
54918;BME280;40818;50.562;7.454;2022-10-16T08:05:16;97716.94;;;12.88;100.00
54918;BME280;40818;50.562;7.454;2022-10-16T08:10:21;97721.13;;;13.02;100.00
54918;BME280;40818;50.562;7.454;2022-10-16T08:15:25;97721.97;;;13.14;100.00
54918;BME280;40818;50.562;7.454;2022-10-16T08:20:32;97722.47;;;13.30;100.00
54918;BME280;40818;50.562;7.454;2022-10-16T08:25:36;97727.84;;;13.40;100.00
54918;BME280;40818;50.562;7.454;2022-10-16T08:30:40;97735.06;;;13.48;100.00
54918;BME280;40818;50.562;7.454;2022-10-16T08:35:52;97741.00;;;13.61;100.00
54918;BME280;40818;50.562;7.454;2022-10-16T08:41:08;97749.03;;;13.81;100.00
54918;BME280;40818;50.562;7.454;2022-10-16T08:46:35;97759.81;;;13.99;100.00
54918;BME280;40818;50.562;7.454;2022-10-16T08:51:44;97767.00;;;14.07;100.00
54918;BME280;40818;50.562;7.454;2022-10-16T08:56:49;97779.00;;;14.09;100.00
54918;BME280;40818;50.562;7.454;2022-10-16T09:01:53;97777.78;;;14.25;100.00
54918;BME280;40818;50.562;7.454;2022-10-16T09:07:01;97795.91;;;14.38;100.00
54918;BME280;40818;50.562;7.454;2022-10-16T09:12:13;97783.13;;;14.56;100.00
54918;BME280;40818;50.562;7.454;2022-10-16T09:17:33;97800.72;;;14.65;100.00
54918;BME280;40818;50.562;7.454;2022-10-16T09:22:45;97806.97;;;14.74;100.00
54918;BME280;40818;50.562;7.454;2022-10-16T09:27:52;97808.16;;;14.81;100.00
54918;BME280;40818;50.562;7.454;2022-10-16T09:32:58;97801.34;;;14.90;100.00
54918;BME280;40818;50.562;7.454;2022-10-16T09:38:05;97799.19;;;14.95;100.00
54918;BME280;40818;50.562;7.454;2022-10-16T09:43:19;97793.88;;;14.85;100.00
54918;BME280;40818;50.562;7.454;2022-10-16T09:48:25;97802.09;;;15.01;100.00
54918;BME280;40818;50.562;7.454;2022-10-16T09:53:43;97804.66;;;14.92;100.00
54918;BME280;40818;50.562;7.454;2022-10-16T09:58:49;97797.13;;;14.77;100.00
54918;BME280;40818;50.562;7.454;2022-10-16T10:03:55;97804.50;;;14.72;100.00
54918;BME280;40818;50.562;7.454;2022-10-16T10:09:16;97808.47;;;14.88;100.00
54918;BME280;40818;50.562;7.454;2022-10-16T10:14:30;97805.16;;;14.85;100.00
54918;BME280;40818;50.562;7.454;2022-10-16T10:19:47;97811.81;;;15.32;100.00
54918;BME280;40818;50.562;7.454;2022-10-16T10:25:10;97806.34;;;15.45;100.00
54918;BME280;40818;50.562;7.454;2022-10-16T10:30:19;97801.13;;;15.45;100.00
54918;BME280;40818;50.562;7.454;2022-10-16T10:35:30;97801.41;;;15.42;100.00
54918;BME280;40818;50.562;7.454;2022-10-16T10:40:47;97802.56;;;15.59;100.00
54918;BME280;40818;50.562;7.454;2022-10-16T10:45:58;97795.75;;;15.67;100.00
54918;BME280;40818;50.562;7.454;2022-10-16T10:51:09;97795.16;;;15.85;100.00
54918;BME280;40818;50.562;7.454;2022-10-16T10:56:34;97802.94;;;15.75;100.00
54918;BME280;40818;50.562;7.454;2022-10-16T11:01:48;97810.66;;;15.98;100.00
54918;BME280;40818;50.562;7.454;2022-10-16T11:06:57;97807.00;;;15.89;100.00
54918;BME280;40818;50.562;7.454;2022-10-16T11:12:08;97800.81;;;15.90;100.00
54918;BME280;40818;50.562;7.454;2022-10-16T11:17:18;97803.28;;;15.82;100.00
54918;BME280;40818;50.562;7.454;2022-10-16T11:22:29;97809.25;;;15.73;100.00
54918;BME280;40818;50.562;7.454;2022-10-16T11:27:40;97811.69;;;15.85;100.00
54918;BME280;40818;50.562;7.454;2022-10-16T11:32:56;97799.28;;;15.87;100.00
54918;BME280;40818;50.562;7.454;2022-10-16T11:38:09;97798.69;;;16.15;100.00
54918;BME280;40818;50.562;7.454;2022-10-16T11:43:20;97822.34;;;16.44;100.00
54918;BME280;40818;50.562;7.454;2022-10-16T11:48:26;97819.84;;;16.43;100.00
54918;BME280;40818;50.562;7.454;2022-10-16T11:53:44;97826.66;;;16.84;100.00
54918;BME280;40818;50.562;7.454;2022-10-16T11:58:58;97818.94;;;17.22;100.00
54918;BME280;40818;50.562;7.454;2022-10-16T12:04:16;97814.28;;;17.53;100.00
54918;BME280;40818;50.562;7.454;2022-10-16T12:09:25;97823.31;;;17.31;100.00
54918;BME280;40818;50.562;7.454;2022-10-16T12:14:41;97837.69;;;17.17;100.00
54918;BME280;40818;50.562;7.454;2022-10-16T12:19:44;97836.28;;;16.74;100.00
54918;BME280;40818;50.562;7.454;2022-10-16T12:24:51;97818.00;;;16.24;100.00
54918;BME280;40818;50.562;7.454;2022-10-16T12:29:58;97811.13;;;16.23;100.00
54918;BME280;40818;50.562;7.454;2022-10-16T12:35:04;97818.59;;;16.37;100.00
54918;BME280;40818;50.562;7.454;2022-10-16T12:40:13;97829.41;;;16.13;100.00
54918;BME280;40818;50.562;7.454;2022-10-16T12:45:28;97825.00;;;16.73;100.00
54918;BME280;40818;50.562;7.454;2022-10-16T12:50:34;97835.78;;;17.10;100.00
54918;BME280;40818;50.562;7.454;2022-10-16T12:55:50;97824.84;;;17.34;100.00
54918;BME280;40818;50.562;7.454;2022-10-16T13:01:04;97830.47;;;17.58;100.00
54918;BME280;40818;50.562;7.454;2022-10-16T13:06:19;97836.22;;;17.72;100.00
54918;BME280;40818;50.562;7.454;2022-10-16T13:11:32;97834.13;;;17.09;100.00
54918;BME280;40818;50.562;7.454;2022-10-16T13:16:50;97824.19;;;17.12;100.00
54918;BME280;40818;50.562;7.454;2022-10-16T13:22:03;97833.16;;;17.10;100.00
54918;BME280;40818;50.562;7.454;2022-10-16T13:27:13;97834.69;;;17.12;100.00
54918;BME280;40818;50.562;7.454;2022-10-16T13:32:23;97833.59;;;17.15;100.00
54918;BME280;40818;50.562;7.454;2022-10-16T13:37:26;97826.09;;;16.81;100.00
54918;BME280;40818;50.562;7.454;2022-10-16T13:42:29;97829.41;;;16.83;100.00
54918;BME280;40818;50.562;7.454;2022-10-16T13:47:36;97834.38;;;16.76;100.00
54918;BME280;40818;50.562;7.454;2022-10-16T13:52:40;97832.00;;;16.53;100.00
54918;BME280;40818;50.562;7.454;2022-10-16T13:57:43;97837.91;;;16.46;100.00
54918;BME280;40818;50.562;7.454;2022-10-16T14:02:57;97832.53;;;16.37;100.00
54918;BME280;40818;50.562;7.454;2022-10-16T14:08:01;97844.00;;;16.56;100.00
54918;BME280;40818;50.562;7.454;2022-10-16T14:13:07;97841.13;;;16.49;100.00
54918;BME280;40818;50.562;7.454;2022-10-16T14:18:19;97841.09;;;16.40;100.00
54918;BME280;40818;50.562;7.454;2022-10-16T14:23:28;97839.53;;;16.27;100.00
54918;BME280;40818;50.562;7.454;2022-10-16T14:28:32;97830.97;;;16.25;100.00
54918;BME280;40818;50.562;7.454;2022-10-16T14:33:38;97824.34;;;16.21;100.00
54918;BME280;40818;50.562;7.454;2022-10-16T14:38:48;97841.72;;;16.22;100.00
54918;BME280;40818;50.562;7.454;2022-10-16T14:43:53;97839.66;;;16.16;100.00
54918;BME280;40818;50.562;7.454;2022-10-16T14:49:03;97841.88;;;16.30;100.00
54918;BME280;40818;50.562;7.454;2022-10-16T14:54:08;97838.19;;;16.33;100.00
54918;BME280;40818;50.562;7.454;2022-10-16T14:59:16;97840.06;;;16.21;100.00
54918;BME280;40818;50.562;7.454;2022-10-16T15:04:23;97834.97;;;16.29;100.00
54918;BME280;40818;50.562;7.454;2022-10-16T15:09:27;97833.22;;;16.40;100.00
54918;BME280;40818;50.562;7.454;2022-10-16T15:14:30;97839.44;;;16.38;100.00
54918;BME280;40818;50.562;7.454;2022-10-16T15:19:36;97843.97;;;16.36;100.00
54918;BME280;40818;50.562;7.454;2022-10-16T15:24:39;97844.94;;;16.35;100.00
54918;BME280;40818;50.562;7.454;2022-10-16T15:29:43;97849.59;;;16.22;100.00
54918;BME280;40818;50.562;7.454;2022-10-16T15:34:49;97841.16;;;16.18;100.00
54918;BME280;40818;50.562;7.454;2022-10-16T15:39:52;97845.41;;;16.10;100.00
54918;BME280;40818;50.562;7.454;2022-10-16T15:44:56;97847.06;;;16.11;100.00
54918;BME280;40818;50.562;7.454;2022-10-16T15:50:03;97842.72;;;15.90;100.00
54918;BME280;40818;50.562;7.454;2022-10-16T15:55:08;97849.03;;;15.87;100.00
54918;BME280;40818;50.562;7.454;2022-10-16T16:00:13;97854.13;;;15.89;100.00
54918;BME280;40818;50.562;7.454;2022-10-16T16:05:20;97850.72;;;15.67;100.00
54918;BME280;40818;50.562;7.454;2022-10-16T16:10:25;97867.09;;;15.69;100.00
54918;BME280;40818;50.562;7.454;2022-10-16T16:15:28;97861.00;;;15.59;100.00
54918;BME280;40818;50.562;7.454;2022-10-16T16:20:34;97869.72;;;15.48;100.00
54918;BME280;40818;50.562;7.454;2022-10-16T16:25:38;97865.56;;;15.46;100.00
54918;BME280;40818;50.562;7.454;2022-10-16T16:30:41;97859.13;;;15.29;100.00
54918;BME280;40818;50.562;7.454;2022-10-16T16:35:47;97866.44;;;15.14;100.00
54918;BME280;40818;50.562;7.454;2022-10-16T16:40:51;97874.44;;;15.12;100.00
54918;BME280;40818;50.562;7.454;2022-10-16T16:45:54;97885.47;;;15.16;100.00
54918;BME280;40818;50.562;7.454;2022-10-16T16:51:04;97871.25;;;15.09;100.00
54918;BME280;40818;50.562;7.454;2022-10-16T16:56:08;97871.53;;;14.94;100.00
54918;BME280;40818;50.562;7.454;2022-10-16T17:01:12;97870.63;;;14.84;100.00
54918;BME280;40818;50.562;7.454;2022-10-16T17:06:21;97879.66;;;14.80;100.00
54918;BME280;40818;50.562;7.454;2022-10-16T17:11:26;97885.38;;;14.74;100.00
54918;BME280;40818;50.562;7.454;2022-10-16T17:16:32;97880.03;;;14.64;100.00
54918;BME280;40818;50.562;7.454;2022-10-16T17:21:38;97879.91;;;14.54;100.00
54918;BME280;40818;50.562;7.454;2022-10-16T17:26:42;97893.22;;;14.51;100.00
54918;BME280;40818;50.562;7.454;2022-10-16T17:31:48;97884.19;;;14.55;100.00
54918;BME280;40818;50.562;7.454;2022-10-16T17:36:54;97892.03;;;14.55;100.00
54918;BME280;40818;50.562;7.454;2022-10-16T17:41:58;97895.59;;;14.54;100.00
54918;BME280;40818;50.562;7.454;2022-10-16T17:47:01;97902.22;;;14.58;100.00
54918;BME280;40818;50.562;7.454;2022-10-16T17:52:09;97906.03;;;14.54;100.00
54918;BME280;40818;50.562;7.454;2022-10-16T17:57:13;97916.63;;;14.52;100.00
54918;BME280;40818;50.562;7.454;2022-10-16T18:02:17;97912.81;;;14.57;100.00
54918;BME280;40818;50.562;7.454;2022-10-16T18:07:23;97911.63;;;14.61;100.00
54918;BME280;40818;50.562;7.454;2022-10-16T18:12:26;97921.03;;;14.63;100.00
54918;BME280;40818;50.562;7.454;2022-10-16T18:17:30;97921.25;;;14.60;100.00
54918;BME280;40818;50.562;7.454;2022-10-16T18:22:39;97924.81;;;14.59;100.00
54918;BME280;40818;50.562;7.454;2022-10-16T18:27:42;97912.38;;;14.63;100.00
54918;BME280;40818;50.562;7.454;2022-10-16T18:32:46;97902.00;;;14.61;100.00
54918;BME280;40818;50.562;7.454;2022-10-16T18:37:53;97904.53;;;14.63;100.00
54918;BME280;40818;50.562;7.454;2022-10-16T18:42:59;97916.72;;;14.74;100.00
54918;BME280;40818;50.562;7.454;2022-10-16T18:48:04;97913.38;;;14.83;100.00
54918;BME280;40818;50.562;7.454;2022-10-16T18:53:11;97921.81;;;14.87;100.00
54918;BME280;40818;50.562;7.454;2022-10-16T18:58:14;97913.00;;;14.88;100.00
54918;BME280;40818;50.562;7.454;2022-10-16T19:03:18;97926.41;;;14.94;100.00
54918;BME280;40818;50.562;7.454;2022-10-16T19:08:24;97927.38;;;14.93;100.00
54918;BME280;40818;50.562;7.454;2022-10-16T19:13:27;97925.09;;;15.00;100.00
54918;BME280;40818;50.562;7.454;2022-10-16T19:18:31;97924.41;;;14.98;100.00
54918;BME280;40818;50.562;7.454;2022-10-16T19:23:41;97928.09;;;14.95;100.00
54918;BME280;40818;50.562;7.454;2022-10-16T19:28:45;97939.84;;;15.01;100.00
54918;BME280;40818;50.562;7.454;2022-10-16T19:33:50;97935.56;;;15.00;100.00
54918;BME280;40818;50.562;7.454;2022-10-16T19:38:58;97936.28;;;15.02;100.00
54918;BME280;40818;50.562;7.454;2022-10-16T19:44:03;97949.44;;;15.12;100.00
54918;BME280;40818;50.562;7.454;2022-10-16T19:49:09;97943.47;;;15.10;100.00
54918;BME280;40818;50.562;7.454;2022-10-16T19:54:16;97948.97;;;15.07;100.00
54918;BME280;40818;50.562;7.454;2022-10-16T19:59:19;97948.97;;;15.07;100.00
54918;BME280;40818;50.562;7.454;2022-10-16T20:04:23;97953.00;;;15.11;100.00
54918;BME280;40818;50.562;7.454;2022-10-16T20:09:29;97955.00;;;15.07;100.00
54918;BME280;40818;50.562;7.454;2022-10-16T20:14:33;97958.84;;;15.03;100.00
54918;BME280;40818;50.562;7.454;2022-10-16T20:19:37;97960.25;;;15.07;100.00
54918;BME280;40818;50.562;7.454;2022-10-16T20:24:43;97964.91;;;15.04;100.00
54918;BME280;40818;50.562;7.454;2022-10-16T20:29:46;97966.56;;;15.05;100.00
54918;BME280;40818;50.562;7.454;2022-10-16T20:34:49;97971.94;;;15.03;100.00
54918;BME280;40818;50.562;7.454;2022-10-16T20:39:55;97970.59;;;14.97;100.00
54918;BME280;40818;50.562;7.454;2022-10-16T20:44:59;97979.28;;;14.98;100.00
54918;BME280;40818;50.562;7.454;2022-10-16T20:50:03;97977.75;;;14.95;100.00
54918;BME280;40818;50.562;7.454;2022-10-16T20:55:09;97983.22;;;14.92;100.00
54918;BME280;40818;50.562;7.454;2022-10-16T21:00:15;97975.63;;;14.89;100.00
54918;BME280;40818;50.562;7.454;2022-10-16T21:05:19;97968.63;;;14.90;100.00
54918;BME280;40818;50.562;7.454;2022-10-16T21:10:25;97971.59;;;14.85;100.00
54918;BME280;40818;50.562;7.454;2022-10-16T21:15:29;97981.22;;;14.84;100.00
54918;BME280;40818;50.562;7.454;2022-10-16T21:20:32;97979.44;;;14.85;100.00
54918;BME280;40818;50.562;7.454;2022-10-16T21:25:38;97973.50;;;14.83;100.00
54918;BME280;40818;50.562;7.454;2022-10-16T21:30:42;97966.25;;;14.87;100.00
54918;BME280;40818;50.562;7.454;2022-10-16T21:35:45;97959.94;;;14.78;100.00
54918;BME280;40818;50.562;7.454;2022-10-16T21:40:51;97952.97;;;14.78;100.00
54918;BME280;40818;50.562;7.454;2022-10-16T21:45:54;97960.56;;;14.70;100.00
54918;BME280;40818;50.562;7.454;2022-10-16T21:50:58;97963.75;;;14.74;100.00
54918;BME280;40818;50.562;7.454;2022-10-16T21:56:10;97966.38;;;14.74;100.00
54918;BME280;40818;50.562;7.454;2022-10-16T22:01:17;97970.09;;;14.71;100.00
54918;BME280;40818;50.562;7.454;2022-10-16T22:06:23;97972.44;;;14.74;100.00
54918;BME280;40818;50.562;7.454;2022-10-16T22:11:31;97976.81;;;14.74;100.00
54918;BME280;40818;50.562;7.454;2022-10-16T22:16:36;97980.41;;;14.73;100.00
54918;BME280;40818;50.562;7.454;2022-10-16T22:21:42;97989.06;;;14.73;100.00
54918;BME280;40818;50.562;7.454;2022-10-16T22:26:49;97986.94;;;14.67;100.00
54918;BME280;40818;50.562;7.454;2022-10-16T22:31:52;97990.13;;;14.71;100.00
54918;BME280;40818;50.562;7.454;2022-10-16T22:36:56;97993.69;;;14.70;100.00
54918;BME280;40818;50.562;7.454;2022-10-16T22:42:02;98001.53;;;14.70;100.00
54918;BME280;40818;50.562;7.454;2022-10-16T22:47:05;98002.00;;;14.75;100.00
54918;BME280;40818;50.562;7.454;2022-10-16T22:52:09;97996.78;;;14.75;100.00
54918;BME280;40818;50.562;7.454;2022-10-16T22:57:15;98000.13;;;14.77;100.00
54918;BME280;40818;50.562;7.454;2022-10-16T23:02:18;98005.34;;;14.77;100.00
54918;BME280;40818;50.562;7.454;2022-10-16T23:07:22;98003.19;;;14.82;100.00
54918;BME280;40818;50.562;7.454;2022-10-16T23:12:28;97998.81;;;14.82;100.00
54918;BME280;40818;50.562;7.454;2022-10-16T23:17:31;98005.47;;;14.87;100.00
54918;BME280;40818;50.562;7.454;2022-10-16T23:22:35;98011.25;;;14.90;100.00
54918;BME280;40818;50.562;7.454;2022-10-16T23:27:41;98009.63;;;14.89;100.00
54918;BME280;40818;50.562;7.454;2022-10-16T23:32:44;98012.09;;;14.91;100.00
54918;BME280;40818;50.562;7.454;2022-10-16T23:37:48;98016.47;;;14.90;100.00
54918;BME280;40818;50.562;7.454;2022-10-16T23:42:54;98000.94;;;14.89;100.00
54918;BME280;40818;50.562;7.454;2022-10-16T23:47:57;98002.47;;;14.91;100.00
54918;BME280;40818;50.562;7.454;2022-10-16T23:53:01;98011.50;;;14.87;100.00
54918;BME280;40818;50.562;7.454;2022-10-16T23:58:07;98014.25;;;14.85;100.00
